createdAt,value
2022-08-17T00:00:05.863Z,27.42
2022-08-17T00:02:34.374Z,26.55
2022-08-17T00:05:10.502Z,25.33
2022-08-17T00:07:38.344Z,22.48
2022-08-17T00:10:06.252Z,23.40
2022-08-17T00:12:43.136Z,25.10
2022-08-17T00:15:20.628Z,24.03
2022-08-17T00:17:48.986Z,25.23
2022-08-17T00:20:16.887Z,25.98
2022-08-17T00:22:46.201Z,24.70
2022-08-17T00:25:15.144Z,25.73
2022-08-17T00:27:42.943Z,25.42
2022-08-17T00:30:11.646Z,24.10
2022-08-17T00:33:14.415Z,24.55
2022-08-17T00:35:28.846Z,24.08
2022-08-17T00:37:56.591Z,24.83
2022-08-17T00:40:24.731Z,23.57
2022-08-17T00:42:53.520Z,25.60
2022-08-17T00:45:23.491Z,26.27
2022-08-17T00:47:51.374Z,24.50
2022-08-17T00:50:19.419Z,24.48
2022-08-17T00:52:53.792Z,25.65
2022-08-17T00:55:22.387Z,24.50
2022-08-17T00:57:55.232Z,26.52
2022-08-17T01:00:26.874Z,27.02
2022-08-17T01:03:04.187Z,26.40
2022-08-17T01:05:32.187Z,27.17
2022-08-17T01:08:00.203Z,27.27
2022-08-17T01:11:00.335Z,25.65
2022-08-17T01:13:19.738Z,23.80
2022-08-17T01:15:48.344Z,25.95
2022-08-17T01:18:16.748Z,26.60
2022-08-17T01:20:51.003Z,27.33
2022-08-17T01:23:20.845Z,24.83
2022-08-17T01:25:52.539Z,25.63
2022-08-17T01:28:52.299Z,24.63
2022-08-17T01:31:08.315Z,25.10
2022-08-17T01:33:36.229Z,24.75
2022-08-17T01:36:04.421Z,24.30
2022-08-17T01:38:32.266Z,22.93
2022-08-17T01:41:01.860Z,23.23
2022-08-17T01:43:31.980Z,21.88
2022-08-17T01:46:03.010Z,21.88
2022-08-17T01:48:35.673Z,22.65
2022-08-17T01:51:04.695Z,23.50
2022-08-17T01:53:36.456Z,23.27
2022-08-17T01:56:06.857Z,22.03
2022-08-17T01:58:35.091Z,22.42
2022-08-17T02:01:02.971Z,20.92
2022-08-17T02:03:30.859Z,21.90
2022-08-17T02:05:58.649Z,15.55
2022-08-17T02:08:37.073Z,22.13
2022-08-17T02:11:11.641Z,23.70
2022-08-17T02:13:39.730Z,20.30
2022-08-17T02:16:07.522Z,13.50
2022-08-17T02:18:36.539Z,12.50
2022-08-17T02:21:04.351Z,13.97
2022-08-17T02:23:33.107Z,13.57
2022-08-17T02:26:01.063Z,13.75
2022-08-17T02:28:29.120Z,12.40
2022-08-17T02:31:01.639Z,18.30
2022-08-17T02:33:42.019Z,15.75
2022-08-17T02:36:12.032Z,12.70
2022-08-17T02:38:39.901Z,18.88
2022-08-17T02:41:07.837Z,22.85
2022-08-17T02:43:35.595Z,23.30
2022-08-17T02:46:04.601Z,19.70
2022-08-17T02:48:32.389Z,23.05
2022-08-17T02:51:00.636Z,22.70
2022-08-17T02:53:31.819Z,25.57
2022-08-17T02:56:04.504Z,26.25
2022-08-17T02:58:35.341Z,27.42
2022-08-17T03:01:04.939Z,24.80
2022-08-17T03:03:32.671Z,28.80
2022-08-17T03:06:00.356Z,28.70
2022-08-17T03:08:28.331Z,26.88
2022-08-17T03:10:56.166Z,23.63
2022-08-17T03:13:24.314Z,20.35
2022-08-17T03:15:52.075Z,23.00
2022-08-17T03:18:25.482Z,21.37
2022-08-17T03:20:54.821Z,17.33
2022-08-17T03:23:24.074Z,16.52
2022-08-17T03:25:53.838Z,18.25
2022-08-17T03:28:22.070Z,23.67
2022-08-17T03:30:51.324Z,21.75
2022-08-17T03:33:19.188Z,24.40
2022-08-17T03:35:47.063Z,19.57
2022-08-17T03:38:17.361Z,19.88
2022-08-17T03:40:59.077Z,18.88
2022-08-17T03:43:30.767Z,18.80
2022-08-17T03:46:28.636Z,18.05
2022-08-17T03:49:25.203Z,19.58
2022-08-17T03:52:12.164Z,19.95
2022-08-17T03:54:58.725Z,18.15
2022-08-17T03:57:26.482Z,17.38
2022-08-17T03:59:54.639Z,16.83
2022-08-17T04:02:23.299Z,15.93
2022-08-17T04:04:51.396Z,15.80
2022-08-17T04:07:20.069Z,14.73
2022-08-17T04:09:47.738Z,13.53
2022-08-17T04:12:19.068Z,12.05
2022-08-17T04:14:53.146Z,12.73
2022-08-17T04:17:26.136Z,14.48
2022-08-17T04:19:53.876Z,14.05
2022-08-17T04:22:31.263Z,13.48
2022-08-17T04:25:02.661Z,17.35
2022-08-17T04:27:30.443Z,20.43
2022-08-17T04:29:58.773Z,22.27
2022-08-17T04:33:04.698Z,24.60
2022-08-17T04:35:18.230Z,21.20
2022-08-17T04:37:46.165Z,20.35
2022-08-17T04:40:32.683Z,19.65
2022-08-17T04:43:04.375Z,18.42
2022-08-17T04:45:32.698Z,18.92
2022-08-17T04:48:01.153Z,16.40
2022-08-17T04:50:28.842Z,13.63
2022-08-17T04:52:57.014Z,12.47
2022-08-17T04:55:24.976Z,12.65
2022-08-17T04:57:52.863Z,12.43
2022-08-17T05:00:20.771Z,11.27
2022-08-17T05:02:49.956Z,13.07
2022-08-17T05:05:21.532Z,12.90
2022-08-17T05:07:52.133Z,13.40
2022-08-17T05:10:20.299Z,13.15
2022-08-17T05:12:48.957Z,12.80
2022-08-17T05:15:16.745Z,12.40
2022-08-17T05:17:44.565Z,15.50
2022-08-17T05:20:12.515Z,15.52
2022-08-17T05:22:51.462Z,19.15
2022-08-17T05:25:25.621Z,20.67
2022-08-17T05:27:54.128Z,21.88
2022-08-17T05:30:21.852Z,26.40
2022-08-17T05:32:56.707Z,25.83
2022-08-17T05:35:24.549Z,26.15
2022-08-17T05:37:52.428Z,26.85
2022-08-17T05:40:21.590Z,26.15
2022-08-17T05:42:50.195Z,27.93
2022-08-17T05:45:23.626Z,26.27
2022-08-17T05:48:07.421Z,26.13
2022-08-17T05:50:39.887Z,25.57
2022-08-17T05:53:24.395Z,26.13
2022-08-17T05:56:29.266Z,24.95
2022-08-17T05:58:58.111Z,25.10
2022-08-17T06:01:31.868Z,27.05
2022-08-17T06:04:11.611Z,24.63
2022-08-17T06:06:44.987Z,27.45
2022-08-17T06:09:33.827Z,26.37
2022-08-17T06:12:26.227Z,26.58
2022-08-17T06:14:58.537Z,27.60
2022-08-17T06:17:29.558Z,26.10
2022-08-17T06:19:58.504Z,27.00
2022-08-17T06:22:27.476Z,28.38
2022-08-17T06:24:56.990Z,27.73
2022-08-17T06:27:38.213Z,27.77
2022-08-17T06:30:09.221Z,28.70
2022-08-17T06:32:38.369Z,28.45
2022-08-17T06:35:07.597Z,29.37
2022-08-17T06:37:35.362Z,28.13
2022-08-17T06:40:09.112Z,28.65
2022-08-17T06:43:09.242Z,29.17
2022-08-17T06:45:38.890Z,28.90
2022-08-17T06:48:25.570Z,29.83
2022-08-17T06:50:54.538Z,29.30
2022-08-17T06:53:22.403Z,29.70
2022-08-17T06:56:08.899Z,29.20
2022-08-17T06:58:38.808Z,29.20
2022-08-17T07:01:12.449Z,30.10
2022-08-17T07:03:46.370Z,28.98
2022-08-17T07:06:14.160Z,30.35
2022-08-17T07:09:01.417Z,31.30
2022-08-17T07:11:35.021Z,30.98
2022-08-17T07:14:28.702Z,29.52
2022-08-17T07:16:56.617Z,30.85
2022-08-17T07:19:24.925Z,30.48
2022-08-17T07:22:01.821Z,30.48
2022-08-17T07:24:51.646Z,30.45
2022-08-17T07:27:21.407Z,32.00
2022-08-17T07:29:50.730Z,32.20
2022-08-17T07:32:20.038Z,29.73
2022-08-17T07:35:21.300Z,30.90
2022-08-17T07:37:55.839Z,32.83
2022-08-17T07:40:23.702Z,33.58
2022-08-17T07:43:04.989Z,30.40
2022-08-17T07:45:51.713Z,30.05
2022-08-17T07:48:23.590Z,32.25
2022-08-17T07:50:53.356Z,33.40
2022-08-17T07:53:25.347Z,31.00
2022-08-17T07:55:53.446Z,32.38
2022-08-17T07:58:22.193Z,32.58
2022-08-17T08:01:08.520Z,32.80
2022-08-17T08:03:41.561Z,31.98
2022-08-17T08:06:20.896Z,31.52
2022-08-17T08:08:52.368Z,31.25
2022-08-17T08:11:44.369Z,30.48
2022-08-17T08:14:21.923Z,30.13
2022-08-17T08:16:59.625Z,32.03
2022-08-17T08:19:28.100Z,30.57
2022-08-17T08:21:59.349Z,30.10
2022-08-17T08:24:49.966Z,30.63
2022-08-17T08:27:27.704Z,30.73
2022-08-17T08:29:55.405Z,31.20
2022-08-17T08:32:37.200Z,34.03
2022-08-17T08:35:05.553Z,35.50
2022-08-17T08:37:42.018Z,34.65
2022-08-17T08:40:16.661Z,32.67
2022-08-17T08:43:00.228Z,30.48
2022-08-17T08:45:38.487Z,27.23
2022-08-17T08:48:45.813Z,23.55
2022-08-17T08:51:14.879Z,23.40
2022-08-17T08:53:52.177Z,20.80
2022-08-17T08:56:30.407Z,19.25
2022-08-17T08:59:04.153Z,20.17
2022-08-17T09:01:31.887Z,20.50
2022-08-17T09:04:21.403Z,20.70
2022-08-17T09:06:58.025Z,20.38
2022-08-17T09:09:29.409Z,21.33
2022-08-17T09:12:17.346Z,21.23
2022-08-17T09:14:52.681Z,21.05
2022-08-17T09:17:22.495Z,20.90
2022-08-17T09:20:05.072Z,19.57
2022-08-17T09:22:32.728Z,20.33
2022-08-17T09:25:07.066Z,19.77
2022-08-17T09:27:37.761Z,19.42
2022-08-17T09:30:08.401Z,19.02
2022-08-17T09:32:40.499Z,20.13
2022-08-17T09:35:17.573Z,19.20
2022-08-17T09:37:54.232Z,21.50
2022-08-17T09:40:25.460Z,24.13
2022-08-17T09:42:54.421Z,24.75
2022-08-17T09:45:31.995Z,24.80
2022-08-17T09:47:59.978Z,23.50
2022-08-17T09:51:03.709Z,23.17
2022-08-17T09:53:24.247Z,22.33
2022-08-17T09:56:03.965Z,21.33
2022-08-17T09:58:49.810Z,20.63
2022-08-17T10:01:36.928Z,18.73
2022-08-17T10:04:04.705Z,18.30
2022-08-17T10:06:33.891Z,16.45
2022-08-17T10:09:09.060Z,15.77
2022-08-17T10:12:01.098Z,14.50
2022-08-17T10:14:53.612Z,13.68
2022-08-17T10:17:30.059Z,12.82
2022-08-17T10:20:02.667Z,12.00
2022-08-17T10:22:54.826Z,13.52
2022-08-17T10:25:54.660Z,12.73
2022-08-17T10:28:28.731Z,13.18
2022-08-17T10:31:23.316Z,13.13
2022-08-17T10:33:52.439Z,12.65
2022-08-17T10:36:38.045Z,11.80
2022-08-17T10:39:32.102Z,11.77
2022-08-17T10:42:01.122Z,11.93
2022-08-17T10:44:39.320Z,11.38
2022-08-17T10:47:12.883Z,12.18
2022-08-17T10:49:48.025Z,11.63
2022-08-17T10:52:22.083Z,12.40
2022-08-17T10:54:58.328Z,14.57
2022-08-17T10:57:32.627Z,14.30
2022-08-17T11:00:29.820Z,12.88
2022-08-17T11:02:57.711Z,11.95
2022-08-17T11:05:43.725Z,12.23
2022-08-17T11:08:27.210Z,11.60
2022-08-17T11:10:58.159Z,11.60
2022-08-17T11:13:35.568Z,13.60
2022-08-17T11:16:15.391Z,14.63
2022-08-17T11:18:55.048Z,12.63
2022-08-17T11:21:30.936Z,10.43
2022-08-17T11:24:01.616Z,11.03
2022-08-17T11:26:33.706Z,13.15
2022-08-17T11:29:02.481Z,10.80
2022-08-17T11:31:43.462Z,9.77
2022-08-17T11:34:26.629Z,9.27
2022-08-17T11:36:57.421Z,8.60
2022-08-17T11:39:45.407Z,9.15
2022-08-17T11:42:25.665Z,8.77
2022-08-17T11:45:17.580Z,7.80
2022-08-17T11:48:29.185Z,8.43
2022-08-17T11:51:18.528Z,9.30
2022-08-17T11:53:46.299Z,8.68
2022-08-17T11:56:33.675Z,9.15
2022-08-17T11:59:03.280Z,9.37
2022-08-17T12:01:33.740Z,9.25
2022-08-17T12:04:20.041Z,7.97
2022-08-17T12:06:49.591Z,8.68
2022-08-17T12:09:20.460Z,8.10
2022-08-17T12:12:12.465Z,8.52
2022-08-17T12:17:41.442Z,7.40
2022-08-17T12:20:33.510Z,7.60
2022-08-17T12:23:10.382Z,6.97
2022-08-17T12:25:45.132Z,7.30
2022-08-17T12:28:23.713Z,6.70
2022-08-17T12:30:52.309Z,6.53
2022-08-17T12:33:25.559Z,7.07
2022-08-17T12:35:59.409Z,6.55
2022-08-17T12:38:32.981Z,6.70
2022-08-17T12:41:21.337Z,6.75
2022-08-17T12:44:05.699Z,6.77
2022-08-17T12:46:35.071Z,6.57
2022-08-17T12:49:32.245Z,5.95
2022-08-17T12:52:05.584Z,6.07
2022-08-17T12:54:39.095Z,6.07
2022-08-17T12:57:07.684Z,5.70
2022-08-17T12:59:35.344Z,5.78
2022-08-17T13:02:03.095Z,5.60
2022-08-17T13:04:30.885Z,6.55
2022-08-17T13:06:59.863Z,5.97
2022-08-17T13:09:35.648Z,6.77
2022-08-17T13:12:08.014Z,7.20
2022-08-17T13:14:36.343Z,5.97
2022-08-17T13:17:11.055Z,6.10
2022-08-17T13:19:46.868Z,6.10
2022-08-17T13:22:14.845Z,6.47
2022-08-17T13:24:53.331Z,6.07
2022-08-17T13:27:21.125Z,5.93
2022-08-17T13:29:59.732Z,6.35
2022-08-17T13:32:45.117Z,6.57
2022-08-17T13:35:39.200Z,5.77
2022-08-17T13:38:17.697Z,6.40
2022-08-17T13:40:49.225Z,5.93
2022-08-17T13:43:35.425Z,6.30
2022-08-17T13:46:10.414Z,5.85
2022-08-17T13:48:39.360Z,6.00
2022-08-17T13:51:08.524Z,5.95
2022-08-17T13:53:40.234Z,5.63
2022-08-17T13:56:36.956Z,5.50
2022-08-17T13:59:00.290Z,5.50
2022-08-17T14:01:28.978Z,5.77
2022-08-17T14:03:56.980Z,5.90
2022-08-17T14:06:51.787Z,5.22
2022-08-17T14:09:13.309Z,5.50
2022-08-17T14:11:41.087Z,6.20
2022-08-17T14:14:08.827Z,5.88
2022-08-17T14:16:41.650Z,6.05
2022-08-17T14:19:10.366Z,6.25
2022-08-17T14:21:38.424Z,6.43
2022-08-17T14:24:06.323Z,5.53
2022-08-17T14:26:34.596Z,5.20
2022-08-17T14:29:02.485Z,5.30
2022-08-17T14:31:34.055Z,5.00
2022-08-17T14:34:05.101Z,5.20
2022-08-17T14:36:32.839Z,5.68
2022-08-17T14:39:00.593Z,5.40
2022-08-17T14:41:28.593Z,5.57
2022-08-17T14:43:56.352Z,5.10
2022-08-17T14:46:24.082Z,5.60
2022-08-17T14:48:57.212Z,5.80
2022-08-17T14:51:28.347Z,5.40
2022-08-17T14:53:57.275Z,4.82
2022-08-17T14:56:25.647Z,4.82
2022-08-17T14:58:53.392Z,5.20
2022-08-17T15:01:21.188Z,5.25
2022-08-17T15:03:48.964Z,4.72
2022-08-17T15:06:16.710Z,4.63
2022-08-17T15:08:44.452Z,4.03
2022-08-17T15:11:14.439Z,4.35
2022-08-17T15:13:52.252Z,4.75
2022-08-17T15:16:21.040Z,4.33
2022-08-17T15:18:49.261Z,3.95
2022-08-17T15:21:18.283Z,3.80
2022-08-17T15:23:46.419Z,4.80
2022-08-17T15:26:14.119Z,4.63
2022-08-17T15:28:41.843Z,5.13
2022-08-17T15:31:09.518Z,4.80
2022-08-17T15:33:37.256Z,6.45
2022-08-17T15:36:06.591Z,5.75
2022-08-17T15:38:36.913Z,5.90
2022-08-17T15:41:04.652Z,5.90
2022-08-17T15:43:36.019Z,5.90
2022-08-17T15:46:05.015Z,5.95
2022-08-17T15:48:42.584Z,5.33
2022-08-17T15:51:16.420Z,5.72
2022-08-17T15:53:44.813Z,6.28
2022-08-17T15:56:15.211Z,5.57
2022-08-17T15:58:43.800Z,6.60
2022-08-17T16:01:14.756Z,6.35
2022-08-17T16:04:04.502Z,6.47
2022-08-17T16:06:34.665Z,6.53
2022-08-17T16:09:02.515Z,6.18
2022-08-17T16:11:30.222Z,6.00
2022-08-17T16:13:58.000Z,5.33
2022-08-17T16:16:26.249Z,5.32
2022-08-17T16:18:54.552Z,5.50
2022-08-17T16:21:27.270Z,5.70
2022-08-17T16:23:56.299Z,5.60
2022-08-17T16:26:24.536Z,5.30
2022-08-17T16:28:53.837Z,5.15
2022-08-17T16:31:21.670Z,5.90
2022-08-17T16:34:01.040Z,4.90
2022-08-17T16:36:39.108Z,5.10
2022-08-17T16:39:06.963Z,5.03
2022-08-17T16:41:44.493Z,4.47
2022-08-17T16:44:15.507Z,4.90
2022-08-17T16:46:45.680Z,5.57
2022-08-17T16:49:29.645Z,4.97
2022-08-17T16:52:03.204Z,6.03
2022-08-17T16:54:30.940Z,5.60
2022-08-17T16:56:59.021Z,5.27
2022-08-17T16:59:38.719Z,6.03
2022-08-17T17:02:11.224Z,5.78
2022-08-17T17:04:43.870Z,6.00
2022-08-17T17:07:34.023Z,6.50
2022-08-17T17:10:27.958Z,7.15
2022-08-17T17:13:01.131Z,7.60
2022-08-17T17:15:39.759Z,8.18
2022-08-17T17:18:07.904Z,7.38
2022-08-17T17:20:38.973Z,6.90
2022-08-17T17:23:30.668Z,7.60
2022-08-17T17:26:00.779Z,7.35
2022-08-17T17:28:36.449Z,6.57
2022-08-17T17:31:05.065Z,6.80
2022-08-17T17:33:34.691Z,6.68
2022-08-17T17:36:08.205Z,7.68
2022-08-17T17:38:39.445Z,7.13
2022-08-17T17:41:08.503Z,6.53
2022-08-17T17:43:40.632Z,6.00
2022-08-17T17:46:27.385Z,5.85
2022-08-17T17:48:59.938Z,5.93
2022-08-17T17:52:06.744Z,5.43
2022-08-17T17:54:35.061Z,5.40
2022-08-17T17:57:02.814Z,5.50
2022-08-17T17:59:33.998Z,6.47
2022-08-17T18:02:08.050Z,6.38
2022-08-17T18:04:41.530Z,6.80
2022-08-17T18:07:09.969Z,7.57
2022-08-17T18:09:37.921Z,7.00
2022-08-17T18:12:06.711Z,7.00
2022-08-17T18:14:37.417Z,6.60
2022-08-17T18:17:05.203Z,6.80
2022-08-17T18:19:33.355Z,6.40
2022-08-17T18:22:18.339Z,6.70
2022-08-17T18:24:47.472Z,6.53
2022-08-17T18:27:24.370Z,7.30
2022-08-17T18:29:53.393Z,6.55
2022-08-17T18:32:29.486Z,7.10
2022-08-17T18:34:58.441Z,6.97
2022-08-17T18:38:04.721Z,7.00
2022-08-17T18:40:33.781Z,6.37
2022-08-17T18:43:03.801Z,6.50
2022-08-17T18:45:41.618Z,6.68
2022-08-17T18:48:33.036Z,6.20
2022-08-17T18:51:02.220Z,6.18
2022-08-17T18:53:34.699Z,6.13
2022-08-17T18:56:21.170Z,5.78
2022-08-17T18:58:52.955Z,6.28
2022-08-17T19:01:21.767Z,5.47
2022-08-17T19:04:12.075Z,5.03
2022-08-17T19:06:39.953Z,5.70
2022-08-17T19:09:26.401Z,6.20
2022-08-17T19:11:54.201Z,5.93
2022-08-17T19:14:21.993Z,5.93
2022-08-17T19:16:50.075Z,5.80
2022-08-17T19:19:17.900Z,5.55
2022-08-17T19:22:08.145Z,6.38
2022-08-17T19:24:35.993Z,5.57
2022-08-17T19:27:18.257Z,6.57
2022-08-17T19:29:57.788Z,6.70
2022-08-17T19:32:26.712Z,7.10
2022-08-17T19:34:54.488Z,6.80
2022-08-17T19:37:31.079Z,6.85
2022-08-17T19:40:01.822Z,6.50
2022-08-17T19:42:47.593Z,6.85
2022-08-17T19:45:34.409Z,6.32
2022-08-17T19:48:08.590Z,7.13
2022-08-17T19:50:41.477Z,6.78
2022-08-17T19:53:15.169Z,6.25
2022-08-17T19:55:43.789Z,7.40
2022-08-17T19:58:19.837Z,6.40
2022-08-17T20:00:50.228Z,6.90
2022-08-17T20:03:27.032Z,6.47
2022-08-17T20:06:11.896Z,6.70
2022-08-17T20:08:54.007Z,7.03
2022-08-17T20:11:22.942Z,6.35
2022-08-17T20:14:03.008Z,6.60
2022-08-17T20:16:31.823Z,6.60
2022-08-17T20:19:00.518Z,7.20
2022-08-17T20:21:47.061Z,7.18
2022-08-17T20:24:20.969Z,6.40
2022-08-17T20:26:58.435Z,7.13
2022-08-17T20:29:37.174Z,7.50
2022-08-17T20:32:08.992Z,6.13
2022-08-17T20:34:38.151Z,6.20
2022-08-17T20:37:06.161Z,7.00
2022-08-17T20:39:40.726Z,5.40
2022-08-17T20:42:08.457Z,5.45
2022-08-17T20:44:37.316Z,6.03
2022-08-17T20:47:06.715Z,6.05
2022-08-17T20:49:47.250Z,6.23
2022-08-17T20:52:18.747Z,6.25
2022-08-17T20:54:49.919Z,6.30
2022-08-17T20:57:32.803Z,6.13
2022-08-17T21:00:14.287Z,5.10
2022-08-17T21:02:44.567Z,4.80
2022-08-17T21:05:34.798Z,5.30
2022-08-17T21:08:13.276Z,5.35
2022-08-17T21:10:41.460Z,5.60
2022-08-17T21:13:15.374Z,4.72
2022-08-17T21:15:55.439Z,4.60
2022-08-17T21:18:26.154Z,3.80
2022-08-17T21:21:02.798Z,4.35
2022-08-17T21:23:33.611Z,5.30
2022-08-17T21:26:04.201Z,3.80
2022-08-17T21:28:34.721Z,4.25
2022-08-17T21:31:09.017Z,3.92
2022-08-17T21:33:38.247Z,3.40
2022-08-17T21:36:12.166Z,4.00
2022-08-17T21:38:49.072Z,3.67
2022-08-17T21:41:28.881Z,3.60
2022-08-17T21:44:01.863Z,3.67
2022-08-17T21:46:31.938Z,3.80
2022-08-17T21:49:13.815Z,3.90
2022-08-17T21:51:44.867Z,3.55
2022-08-17T21:54:27.413Z,3.00
2022-08-17T21:56:55.178Z,3.20
2022-08-17T21:59:27.503Z,2.70
2022-08-17T22:02:02.230Z,2.85
2022-08-17T22:04:33.881Z,3.70
2022-08-17T22:07:02.489Z,3.80
2022-08-17T22:09:41.610Z,3.47
2022-08-17T22:12:11.412Z,5.25
2022-08-17T22:14:52.960Z,3.97
2022-08-17T22:17:34.474Z,4.45
2022-08-17T22:20:10.814Z,4.13
2022-08-17T22:23:05.986Z,3.33
2022-08-17T22:25:36.035Z,3.40
2022-08-17T22:28:05.061Z,3.45
2022-08-17T22:30:34.219Z,3.30
2022-08-17T22:33:02.861Z,4.73
2022-08-17T22:35:37.982Z,4.47
2022-08-17T22:38:20.787Z,4.57
2022-08-17T22:40:52.449Z,5.13
2022-08-17T22:43:28.613Z,4.53
2022-08-17T22:45:57.274Z,4.95
2022-08-17T22:48:29.724Z,5.43
2022-08-17T22:51:12.449Z,5.22
2022-08-17T22:54:05.319Z,5.00
2022-08-17T22:56:51.496Z,4.88
2022-08-17T22:59:40.443Z,4.60
2022-08-17T23:02:11.930Z,5.15
2022-08-17T23:04:40.581Z,4.60
2022-08-17T23:07:08.410Z,4.63
2022-08-17T23:09:36.168Z,4.43
2022-08-17T23:12:06.708Z,4.45
2022-08-17T23:14:36.837Z,5.45
2022-08-17T23:17:06.632Z,4.35
2022-08-17T23:19:34.496Z,4.88
2022-08-17T23:22:02.834Z,5.13
2022-08-17T23:24:31.143Z,4.53
2022-08-17T23:26:59.127Z,5.13
2022-08-17T23:29:29.584Z,5.32
2022-08-17T23:31:59.832Z,4.37
2022-08-17T23:34:29.525Z,5.20
2022-08-17T23:36:57.275Z,5.35
2022-08-17T23:39:28.182Z,4.45
2022-08-17T23:41:59.124Z,4.70
2022-08-17T23:44:27.324Z,4.50
2022-08-17T23:46:55.252Z,4.22
2022-08-17T23:49:24.499Z,3.70
2022-08-17T23:51:54.891Z,3.95
2022-08-17T23:54:22.651Z,4.40
2022-08-17T23:56:50.592Z,4.77
2022-08-17T23:59:19.013Z,4.78
